Bosporus — V2QY — position and weather

sailwx.info

Track history (hours):
 
Tides and Currents Weather Stations Pressure Air Temp Water Temp Dewpoint Dewpoint Depression Visibility Wind Speed Wind Dir Waves Ship Positions

Bosporus

Last reported at 2016-May-03 08:28 UTC. Time now 2016-May-03 08:44 UTC.
Position N 43°25' E 004°55'.

Length 100 m; draft 4.1 m.

Type: Cargo ship. MMSI: 304010802.

Date/timePositionNaut miles runAvg speedWind from/ knotsBaromVisibWave heightAir tempDewpointWater temp
2016-May-03 08:28N 43°25' E 004°55'0 0.0
2016-May-03 07:28N 43°25' E 004°55'0 0.0
2016-May-03 06:19N 43°25' E 004°55'0 0.0
2016-May-03 05:22N 43°25' E 004°55'0 0.0
2016-May-03 04:28N 43°25' E 004°55'0 0.0
2016-May-03 03:25N 43°25' E 004°55'0 0.0
2016-May-03 02:28N 43°25' E 004°55'0 0.0
2016-May-03 01:31N 43°25' E 004°55'0 0.0
2016-May-03 00:31N 43°25' E 004°55'0 0.0
2016-May-02 23:31N 43°25' E 004°55'0 0.0
2016-May-02 22:31N 43°25' E 004°55'0 0.0
2016-May-02 21:28N 43°25' E 004°55'0 0.0
2016-May-02 20:31N 43°25' E 004°55'0 0.0
2016-May-02 19:31N 43°25' E 004°55'0 0.0
2016-May-02 18:13N 43°25' E 004°55'0 0.0
2016-May-02 17:31N 43°25' E 004°55'0 0.0
2016-May-02 16:28N 43°25' E 004°55'0 0.0
2016-May-02 15:31N 43°25' E 004°55'0 0.0
2016-May-02 14:22N 43°25' E 004°55'0 0.0
2016-May-02 13:31N 43°25' E 004°55'0 0.0
2016-May-02 12:28N 43°25' E 004°55'0 0.0
2016-May-02 11:28N 43°25' E 004°55'0 0.0
2016-May-02 10:28N 43°25' E 004°55'0 0.0
2016-May-02 09:28N 43°25' E 004°55'0 0.0
2016-May-02 08:28N 43°25' E 004°55'0 0.0
2016-May-02 07:28N 43°25' E 004°55'0 0.0
2016-May-02 06:28N 43°25' E 004°55'0 0.0
2016-May-02 05:25N 43°25' E 004°55'0 0.0
2016-May-02 04:25N 43°25' E 004°55'0 0.0
2016-May-02 03:28N 43°25' E 004°55'0 0.0
2016-May-02 02:31N 43°25' E 004°55'0 0.0
2016-May-02 01:31N 43°25' E 004°55'0 0.0
2016-May-02 00:31N 43°25' E 004°55'0 0.0
2016-May-01 23:31N 43°25' E 004°55'0 0.0
2016-May-01 22:31N 43°25' E 004°55'0 0.0
2016-May-01 21:31N 43°25' E 004°55'0 0.0
2016-May-01 20:28N 43°25' E 004°55'0 0.0
2016-May-01 19:28N 43°25' E 004°55'0 0.0
2016-May-01 18:31N 43°25' E 004°55'0 0.0
2016-May-01 17:31N 43°25' E 004°55'0 0.0
2016-May-01 16:31N 43°25' E 004°55'0 0.0
2016-May-01 15:28N 43°25' E 004°55'0 0.0
2016-May-01 14:31N 43°25' E 004°55'0 0.0
2016-May-01 13:31N 43°25' E 004°55'0 0.0
2016-May-01 12:22N 43°25' E 004°55'0 0.0
2016-May-01 11:28N 43°25' E 004°55'0 0.0
2016-May-01 10:28N 43°25' E 004°55'0 0.0
2016-May-01 09:28N 43°25' E 004°55'0 0.0
2016-May-01 08:28N 43°25' E 004°55'0 0.0
2016-May-01 07:31N 43°25' E 004°55'0 0.0
2016-May-01 06:31N 43°25' E 004°55'0 0.0
2016-May-01 04:31N 43°25' E 004°55'0 0.0
2016-May-01 03:10N 43°25' E 004°55'0 0.0
2016-Apr-30 23:10N 43°25' E 004°55'0 0.0
2016-Apr-30 22:25N 43°25' E 004°55'0 0.0
2016-Apr-30 21:31N 43°25' E 004°55'0 0.0
2016-Apr-30 20:31N 43°25' E 004°55'0 0.0
2016-Apr-30 19:31N 43°25' E 004°55'0 0.0
2016-Apr-30 18:28N 43°25' E 004°55'0 0.0
2016-Apr-30 14:28N 43°25' E 004°55'0 0.0
2016-Apr-30 13:10N 43°25' E 004°55'0 0.1
2016-Apr-30 11:16N 43°25' E 004°55'0 0.0
2016-Apr-30 10:28N 43°25' E 004°55'0 0.0
2016-Apr-30 09:28N 43°25' E 004°55'0 0.0
2016-Apr-30 07:04N 43°25' E 004°55'0 0.1
2016-Apr-30 06:31N 43°25' E 004°55'0 0.0
2016-Apr-30 05:31N 43°25' E 004°55'0 0.0
2016-Apr-30 04:31N 43°25' E 004°55'0 0.0
2016-Apr-30 03:31N 43°25' E 004°55'0 0.0
2016-Apr-30 02:31N 43°25' E 004°55'0 0.0
2016-Apr-30 01:31N 43°25' E 004°55'0 0.0
2016-Apr-30 00:31N 43°25' E 004°55'0 0.0
2016-Apr-29 22:28N 43°25' E 004°55'6 6.1
2016-Apr-29 21:33N 43°20' E 004°59'10 9.5
2016-Apr-29 20:29N 43°10' E 005°02'  
2016-Apr-26 05:33N 43°13' E 004°37'16 8.1
2016-Apr-26 03:33N 43°22' E 004°56'4 0.3
2016-Apr-25 11:27N 43°26' E 004°54'2 2.0
2016-Apr-25 10:33N 43°25' E 004°56'0 0.0
2016-Apr-25 09:28N 43°25' E 004°56'0 0.0
2016-Apr-25 07:31N 43°25' E 004°56'0 0.0
2016-Apr-25 06:28N 43°25' E 004°56'0 0.0
2016-Apr-25 05:31N 43°25' E 004°56'0 0.0
2016-Apr-25 04:31N 43°25' E 004°56'0 0.0
2016-Apr-25 03:31N 43°25' E 004°56'0 0.0
2016-Apr-25 02:31N 43°25' E 004°56'4 4.2
2016-Apr-25 01:33N 43°21' E 004°59'  
Track history (hours):
 
Tides and Currents Weather Stations Pressure Air Temp Water Temp Dewpoint Dewpoint Depression Visibility Wind Speed Wind Dir Waves Ship Positions

Bosporus

Last reported at 2016-May-03 08:28 UTC. Time now 2016-May-03 08:44 UTC.
Position N 43°25' E 004°55'.

Length 100 m; draft 4.1 m.

Type: Cargo ship. MMSI: 304010802.

Date/timePositionNaut miles runAvg speedWind from/ knotsBaromVisibWave heightAir tempDewpointWater temp
2016-May-03 08:28N 43°25' E 004°55'0 0.0
2016-May-03 07:28N 43°25' E 004°55'0 0.0
2016-May-03 06:19N 43°25' E 004°55'0 0.0
2016-May-03 05:22N 43°25' E 004°55'0 0.0
2016-May-03 04:28N 43°25' E 004°55'0 0.0
2016-May-03 03:25N 43°25' E 004°55'0 0.0
2016-May-03 02:28N 43°25' E 004°55'0 0.0
2016-May-03 01:31N 43°25' E 004°55'0 0.0
2016-May-03 00:31N 43°25' E 004°55'0 0.0
2016-May-02 23:31N 43°25' E 004°55'0 0.0
2016-May-02 22:31N 43°25' E 004°55'0 0.0
2016-May-02 21:28N 43°25' E 004°55'0 0.0
2016-May-02 20:31N 43°25' E 004°55'0 0.0
2016-May-02 19:31N 43°25' E 004°55'0 0.0
2016-May-02 18:13N 43°25' E 004°55'0 0.0
2016-May-02 17:31N 43°25' E 004°55'0 0.0
2016-May-02 16:28N 43°25' E 004°55'0 0.0
2016-May-02 15:31N 43°25' E 004°55'0 0.0
2016-May-02 14:22N 43°25' E 004°55'0 0.0
2016-May-02 13:31N 43°25' E 004°55'0 0.0
2016-May-02 12:28N 43°25' E 004°55'0 0.0
2016-May-02 11:28N 43°25' E 004°55'0 0.0
2016-May-02 10:28N 43°25' E 004°55'0 0.0
2016-May-02 09:28N 43°25' E 004°55'0 0.0
2016-May-02 08:28N 43°25' E 004°55'0 0.0
2016-May-02 07:28N 43°25' E 004°55'0 0.0
2016-May-02 06:28N 43°25' E 004°55'0 0.0
2016-May-02 05:25N 43°25' E 004°55'0 0.0
2016-May-02 04:25N 43°25' E 004°55'0 0.0
2016-May-02 03:28N 43°25' E 004°55'0 0.0
2016-May-02 02:31N 43°25' E 004°55'0 0.0
2016-May-02 01:31N 43°25' E 004°55'0 0.0
2016-May-02 00:31N 43°25' E 004°55'0 0.0
2016-May-01 23:31N 43°25' E 004°55'0 0.0
2016-May-01 22:31N 43°25' E 004°55'0 0.0
2016-May-01 21:31N 43°25' E 004°55'0 0.0
2016-May-01 20:28N 43°25' E 004°55'0 0.0
2016-May-01 19:28N 43°25' E 004°55'0 0.0
2016-May-01 18:31N 43°25' E 004°55'0 0.0
2016-May-01 17:31N 43°25' E 004°55'0 0.0
2016-May-01 16:31N 43°25' E 004°55'0 0.0
2016-May-01 15:28N 43°25' E 004°55'0 0.0
2016-May-01 14:31N 43°25' E 004°55'0 0.0
2016-May-01 13:31N 43°25' E 004°55'0 0.0
2016-May-01 12:22N 43°25' E 004°55'0 0.0
2016-May-01 11:28N 43°25' E 004°55'0 0.0
2016-May-01 10:28N 43°25' E 004°55'0 0.0
2016-May-01 09:28N 43°25' E 004°55'0 0.0
2016-May-01 08:28N 43°25' E 004°55'0 0.0
2016-May-01 07:31N 43°25' E 004°55'0 0.0
2016-May-01 06:31N 43°25' E 004°55'0 0.0
2016-May-01 04:31N 43°25' E 004°55'0 0.0
2016-May-01 03:10N 43°25' E 004°55'0 0.0
2016-Apr-30 23:10N 43°25' E 004°55'0 0.0
2016-Apr-30 22:25N 43°25' E 004°55'0 0.0
2016-Apr-30 21:31N 43°25' E 004°55'0 0.0
2016-Apr-30 20:31N 43°25' E 004°55'0 0.0
2016-Apr-30 19:31N 43°25' E 004°55'0 0.0
2016-Apr-30 18:28N 43°25' E 004°55'0 0.0
2016-Apr-30 14:28N 43°25' E 004°55'0 0.0
2016-Apr-30 13:10N 43°25' E 004°55'0 0.1
2016-Apr-30 11:16N 43°25' E 004°55'0 0.0
2016-Apr-30 10:28N 43°25' E 004°55'0 0.0
2016-Apr-30 09:28N 43°25' E 004°55'0 0.0
2016-Apr-30 07:04N 43°25' E 004°55'0 0.1
2016-Apr-30 06:31N 43°25' E 004°55'0 0.0
2016-Apr-30 05:31N 43°25' E 004°55'0 0.0
2016-Apr-30 04:31N 43°25' E 004°55'0 0.0
2016-Apr-30 03:31N 43°25' E 004°55'0 0.0
2016-Apr-30 02:31N 43°25' E 004°55'0 0.0
2016-Apr-30 01:31N 43°25' E 004°55'0 0.0
2016-Apr-30 00:31N 43°25' E 004°55'0 0.0
2016-Apr-29 22:28N 43°25' E 004°55'6 6.1
2016-Apr-29 21:33N 43°20' E 004°59'10 9.5
2016-Apr-29 20:29N 43°10' E 005°02'  
2016-Apr-26 05:33N 43°13' E 004°37'16 8.1
2016-Apr-26 03:33N 43°22' E 004°56'4 0.3
2016-Apr-25 11:27N 43°26' E 004°54'2 2.0
2016-Apr-25 10:33N 43°25' E 004°56'0 0.0
2016-Apr-25 09:28N 43°25' E 004°56'0 0.0
2016-Apr-25 07:31N 43°25' E 004°56'0 0.0
2016-Apr-25 06:28N 43°25' E 004°56'0 0.0
2016-Apr-25 05:31N 43°25' E 004°56'0 0.0
2016-Apr-25 04:31N 43°25' E 004°56'0 0.0
2016-Apr-25 03:31N 43°25' E 004°56'0 0.0
2016-Apr-25 02:31N 43°25' E 004°56'4 4.2
2016-Apr-25 01:33N 43°21' E 004°59'  

Dump ship's entire track history